Time;durP1;ratioP1;P1;durP2;ratioP2;P2;SDS_P1;SDS_P2;PMS_P1;PMS_P2;Temp;Humidity;BMP_temperature;BMP_pressure;BME280_temperature;BME280_humidity;BME280_pressure;Samples;Min_cycle;Max_cycle;Signal;HPM_P1;HPM_P2
2023/08/30 00:00:05;;;;;;;;;4.00;4.00;;;;;-146.67;100.00;57155.34;5081435;28;8765;-78
2023/08/30 00:02:30;;;;;;;;;2.75;2.75;;;;;-146.67;100.00;57155.34;5063954;28;10231;-78
2023/08/30 00:04:59;;;;;;;;;3.50;3.00;;;;;-146.67;100.00;57155.34;5063886;28;10538;-78
2023/08/30 00:07:25;;;;;;;;;4.00;3.00;;;;;-146.67;100.00;57155.34;5083018;28;8725;-78
2023/08/30 00:09:50;;;;;;;;;4.25;4.00;;;;;-146.67;100.00;57155.34;5085530;28;10631;-78
2023/08/30 00:12:16;;;;;;;;;3.25;3.25;;;;;-146.67;100.00;57155.34;5085250;28;8916;-78
2023/08/30 00:14:41;;;;;;;;;5.25;3.00;;;;;-146.67;100.00;57155.34;5085364;28;8871;-78
2023/08/30 00:17:07;;;;;;;;;1.25;1.25;;;;;-146.67;100.00;57155.34;5066998;28;8800;-78
2023/08/30 00:19:32;;;;;;;;;3.00;3.00;;;;;-146.67;100.00;57155.34;5084740;28;8848;-78
2023/08/30 00:21:57;;;;;;;;;3.25;3.25;;;;;-146.67;100.00;57155.34;5067598;28;9837;-78
2023/08/30 00:24:23;;;;;;;;;3.75;3.75;;;;;-146.67;100.00;57155.34;5066981;28;9263;-78
2023/08/30 00:26:48;;;;;;;;;2.50;2.25;;;;;-146.67;100.00;57155.34;5085712;28;8797;-78
2023/08/30 00:29:14;;;;;;;;;6.25;3.00;;;;;-146.67;100.00;57155.34;5065901;28;8915;-78
2023/08/30 00:31:39;;;;;;;;;5.00;2.75;;;;;-146.67;100.00;57155.34;5085379;28;8816;-78
2023/08/30 00:34:05;;;;;;;;;4.00;3.00;;;;;-146.67;100.00;57155.34;5084058;28;8793;-78
2023/08/30 00:36:30;;;;;;;;;2.00;2.00;;;;;-146.67;100.00;57155.34;5085122;28;8793;-78
2023/08/30 00:38:55;;;;;;;;;4.00;4.00;;;;;-146.67;100.00;57155.34;5066941;28;9231;-78
2023/08/30 00:41:21;;;;;;;;;4.00;3.00;;;;;-146.67;100.00;57155.34;5066937;28;9993;-78
2023/08/30 00:43:46;;;;;;;;;3.75;3.75;;;;;-146.67;100.00;57155.34;5084577;28;8795;-78
2023/08/30 00:46:13;;;;;;;;;4.00;2.25;;;;;-146.67;100.00;57155.34;5083894;28;8805;-78
2023/08/30 00:48:38;;;;;;;;;3.00;3.00;;;;;-146.67;100.00;57155.34;5084013;28;8958;-78
2023/08/30 00:51:04;;;;;;;;;3.25;3.25;;;;;-146.67;100.00;57155.34;5065947;28;10721;-78
2023/08/30 00:53:30;;;;;;;;;4.50;2.00;;;;;-146.67;100.00;57155.34;5065975;28;8920;-78
2023/08/30 00:55:55;;;;;;;;;2.00;2.00;;;;;-146.67;100.00;57155.34;5065139;28;8851;-78
2023/08/30 00:58:21;;;;;;;;;2.00;2.00;;;;;-146.67;100.00;57155.34;5065711;28;8855;-78
2023/08/30 01:00:47;;;;;;;;;6.00;3.00;;;;;-146.67;100.00;57155.34;5084787;28;8797;-78
2023/08/30 01:03:13;;;;;;;;;3.00;3.00;;;;;-146.67;100.00;57155.34;5066391;28;10314;-78
2023/08/30 01:05:38;;;;;;;;;2.00;2.00;;;;;-146.67;100.00;57155.34;5084621;28;8883;-78
2023/08/30 01:08:04;;;;;;;;;4.50;3.25;;;;;-146.67;100.00;57155.34;5066789;28;8800;-78
2023/08/30 01:11:24;;;;;;;;;5.50;3.00;;;;;-146.67;100.00;57155.34;5084328;28;8814;-78
2023/08/30 01:14:08;;;;;;;;;3.00;2.75;;;;;-146.67;100.00;57155.34;5049831;28;10732;-78
2023/08/30 01:16:35;;;;;;;;;5.25;4.25;;;;;-146.67;100.00;57155.34;5084157;28;10582;-78
2023/08/30 01:19:16;;;;;;;;;3.50;3.50;;;;;-146.67;100.00;57155.34;5084280;28;10270;-78
2023/08/30 01:22:13;;;;;;;;;5.50;3.00;;;;;-146.67;100.00;57155.34;5082550;28;10585;-78
2023/08/30 01:24:57;;;;;;;;;5.25;3.00;;;;;-146.67;100.00;57155.34;5066072;28;10465;-78
2023/08/30 01:27:25;;;;;;;;;1.75;1.75;;;;;-146.67;100.00;57155.34;5065473;28;10361;-78
2023/08/30 01:29:54;;;;;;;;;4.25;3.00;;;;;-146.67;100.00;57155.34;5084341;28;10352;-78
2023/08/30 01:32:22;;;;;;;;;2.00;2.00;;;;;-146.67;100.00;57155.34;5084243;28;10545;-78
2023/08/30 01:34:49;;;;;;;;;3.00;3.00;;;;;-146.67;100.00;57155.34;5084384;28;10180;-78
2023/08/30 01:37:16;;;;;;;;;2.50;2.00;;;;;-146.67;100.00;57155.34;5084349;28;10348;-78
2023/08/30 01:39:42;;;;;;;;;1.75;1.75;;;;;-146.67;100.00;57155.34;5065680;28;10058;-78
2023/08/30 01:42:09;;;;;;;;;2.25;2.00;;;;;-146.67;100.00;57155.34;5084160;28;10316;-78
2023/08/30 01:44:35;;;;;;;;;3.50;2.00;;;;;-146.67;100.00;57155.34;5083544;28;10169;-78
2023/08/30 01:47:02;;;;;;;;;2.00;1.00;;;;;-146.67;100.00;57155.34;5084217;28;10118;-78
2023/08/30 01:49:33;;;;;;;;;3.00;2.00;;;;;-146.67;100.00;57155.34;5083554;28;11424;-78
2023/08/30 01:52:00;;;;;;;;;1.00;1.00;;;;;-146.67;100.00;57155.34;5066029;28;10134;-78
2023/08/30 01:54:27;;;;;;;;;4.00;1.00;;;;;-146.67;100.00;57155.34;5064959;28;10454;-78
2023/08/30 01:56:53;;;;;;;;;1.00;1.00;;;;;-146.67;100.00;57155.34;5083966;28;10084;-78
2023/08/30 01:59:18;;;;;;;;;2.00;2.00;;;;;-146.67;100.00;57155.34;5082284;28;9963;-78
2023/08/30 02:01:44;;;;;;;;;3.50;2.75;;;;;-146.67;100.00;57155.34;5082350;28;10100;-78
2023/08/30 02:04:09;;;;;;;;;2.75;1.00;;;;;-146.67;100.00;57155.34;5065904;28;8893;-78
2023/08/30 02:06:42;;;;;;;;;4.00;1.00;;;;;-146.67;100.00;57155.34;5065592;28;8931;-78
2023/08/30 02:09:17;;;;;;;;;2.00;1.00;;;;;-146.67;100.00;57155.34;5083475;28;8756;-78
2023/08/30 02:11:44;;;;;;;;;2.50;1.75;;;;;-146.67;100.00;57155.34;5065355;28;10423;-78
2023/08/30 02:14:11;;;;;;;;;3.00;1.00;;;;;-146.67;100.00;57155.34;5083704;28;10234;-78
2023/08/30 02:16:38;;;;;;;;;2.75;1.00;;;;;-146.67;100.00;57155.34;5083411;28;10105;-78
2023/08/30 02:19:06;;;;;;;;;1.75;1.00;;;;;-146.67;100.00;57155.34;5083614;28;10098;-78
2023/08/30 02:21:31;;;;;;;;;2.25;2.25;;;;;-146.67;100.00;57155.34;5064336;28;10039;-78
2023/08/30 02:23:57;;;;;;;;;1.75;1.75;;;;;-146.67;100.00;57155.34;5083224;28;10119;-78
2023/08/30 02:26:22;;;;;;;;;1.50;1.00;;;;;-146.67;100.00;57155.34;5083655;28;8809;-78
2023/08/30 02:28:47;;;;;;;;;1.00;1.00;;;;;-146.67;100.00;57155.34;5065110;28;8800;-78
2023/08/30 02:31:13;;;;;;;;;1.00;1.00;;;;;-146.67;100.00;57155.34;5064692;28;9866;-78
2023/08/30 02:33:38;;;;;;;;;1.00;1.00;;;;;-146.67;100.00;57155.34;5065341;28;8792;-78
2023/08/30 02:36:04;;;;;;;;;2.50;2.00;;;;;-146.67;100.00;57155.34;5065308;28;9598;-78
2023/08/30 02:38:30;;;;;;;;;4.50;2.00;;;;;-146.67;100.00;57155.34;5065084;28;8805;-78
2023/08/30 02:40:55;;;;;;;;;1.00;1.00;;;;;-146.67;100.00;57155.34;5081498;28;10117;-78
2023/08/30 02:43:22;;;;;;;;;2.00;1.00;;;;;-146.67;100.00;57155.34;5083066;28;8789;-78
2023/08/30 02:45:47;;;;;;;;;1.00;1.00;;;;;-146.67;100.00;57155.34;5083267;28;8730;-78
2023/08/30 02:48:13;;;;;;;;;1.50;1.00;;;;;-146.67;100.00;57155.34;5083257;28;10027;-78
2023/08/30 02:50:39;;;;;;;;;2.25;1.75;;;;;-146.67;100.00;57155.34;5081583;28;9967;-78
2023/08/30 02:53:04;;;;;;;;;1.00;1.00;;;;;-146.67;100.00;57155.34;5082561;28;10100;-78
2023/08/30 02:55:30;;;;;;;;;0.75;0.00;;;;;-146.67;100.00;57155.34;5064734;28;8853;-78
2023/08/30 02:57:56;;;;;;;;;1.00;1.00;;;;;-146.67;100.00;57155.34;5082854;28;8779;-78
2023/08/30 03:00:21;;;;;;;;;1.75;1.75;;;;;-146.67;100.00;57155.34;5064882;28;11246;-78
2023/08/30 03:02:47;;;;;;;;;0.75;0.75;;;;;-146.67;100.00;57155.34;5083207;28;8792;-78
2023/08/30 03:05:12;;;;;;;;;3.50;2.50;;;;;-146.67;100.00;57155.34;5064787;28;8841;-78
2023/08/30 03:07:37;;;;;;;;;2.00;2.00;;;;;-146.67;100.00;57155.34;5082769;28;8799;-78
2023/08/30 03:10:03;;;;;;;;;2.00;1.00;;;;;-146.67;100.00;57155.34;5064478;28;10919;-78
2023/08/30 03:12:29;;;;;;;;;1.50;1.25;;;;;-146.67;100.00;57155.34;5064746;28;8814;-78
2023/08/30 03:14:54;;;;;;;;;1.75;1.25;;;;;-146.67;100.00;57155.34;5064453;28;8795;-78
2023/08/30 03:17:19;;;;;;;;;2.00;1.00;;;;;-146.67;100.00;57155.34;5082804;28;8811;-78
2023/08/30 03:19:45;;;;;;;;;1.25;0.75;;;;;-146.67;100.00;57155.34;5064065;28;9842;-78
2023/08/30 03:22:10;;;;;;;;;2.00;2.00;;;;;-146.67;100.00;57155.34;5064193;28;8822;-78
2023/08/30 03:24:35;;;;;;;;;2.00;2.00;;;;;-146.67;100.00;57155.34;5083001;28;8881;-78
2023/08/30 03:27:01;;;;;;;;;1.25;1.25;;;;;-146.67;100.00;57155.34;5064270;28;8854;-78
2023/08/30 03:29:26;;;;;;;;;2.00;2.00;;;;;-146.67;100.00;57155.34;5064204;28;9843;-78
2023/08/30 03:31:51;;;;;;;;;1.00;1.00;;;;;-146.67;100.00;57155.34;5102288;28;8800;-78
2023/08/30 03:34:17;;;;;;;;;3.00;1.50;;;;;-146.67;100.00;57155.34;5101409;28;8921;-78
2023/08/30 03:36:43;;;;;;;;;1.00;1.00;;;;;-146.67;100.00;57155.34;5083784;28;8830;-78
2023/08/30 03:39:10;;;;;;;;;2.25;1.00;;;;;-146.67;100.00;57155.34;5101871;28;9686;-78
2023/08/30 03:41:35;;;;;;;;;1.50;1.00;;;;;-146.67;100.00;57155.34;5100636;28;9932;-78
2023/08/30 03:44:00;;;;;;;;;1.25;1.00;;;;;-146.67;100.00;57155.34;5084140;28;10184;-78
2023/08/30 03:46:26;;;;;;;;;1.00;1.00;;;;;-146.67;100.00;57155.34;5092888;28;9601;-78
2023/08/30 03:48:51;;;;;;;;;3.00;2.00;;;;;-146.67;100.00;57155.34;5064273;28;9838;-78
2023/08/30 03:51:17;;;;;;;;;2.75;2.75;;;;;-146.67;100.00;57155.34;5081179;28;8779;-78
2023/08/30 03:53:42;;;;;;;;;3.25;3.00;;;;;-146.67;100.00;57155.34;5082016;28;8806;-78
2023/08/30 03:56:08;;;;;;;;;2.50;2.00;;;;;-146.67;100.00;57155.34;5063864;28;8832;-78
2023/08/30 03:58:33;;;;;;;;;2.75;1.50;;;;;-146.67;100.00;57155.34;5063984;28;9872;-78
2023/08/30 04:00:58;;;;;;;;;5.25;3.50;;;;;-146.67;100.00;57155.34;5082328;28;8789;-78
2023/08/30 04:03:24;;;;;;;;;4.00;2.00;;;;;-146.67;100.00;57155.34;5063791;28;9372;-78
2023/08/30 04:05:56;;;;;;;;;2.00;2.00;;;;;-146.67;100.00;57155.34;5081857;28;8828;-78
2023/08/30 04:08:21;;;;;;;;;1.75;1.75;;;;;-146.67;100.00;57155.34;5081954;28;8858;-78
2023/08/30 04:10:49;;;;;;;;;2.25;2.00;;;;;-146.67;100.00;57155.34;5082315;28;10203;-78
2023/08/30 04:13:15;;;;;;;;;1.75;0.50;;;;;-146.67;100.00;57155.34;5081179;28;8841;-78
2023/08/30 04:15:40;;;;;;;;;4.00;2.00;;;;;-146.67;100.00;57155.34;5063954;28;10139;-78
2023/08/30 04:18:07;;;;;;;;;3.50;2.00;;;;;-146.67;100.00;57155.34;5063812;28;11183;-78
2023/08/30 04:20:33;;;;;;;;;1.75;1.00;;;;;-146.67;100.00;57155.34;5081173;28;8789;-78
2023/08/30 04:23:02;;;;;;;;;2.50;2.50;;;;;-146.67;100.00;57155.34;5081495;28;10090;-78
2023/08/30 04:25:29;;;;;;;;;3.00;3.00;;;;;-146.67;100.00;57155.34;5081522;28;10185;-78
2023/08/30 04:27:54;;;;;;;;;1.50;1.50;;;;;-146.67;100.00;57155.34;5081655;28;10401;-78
2023/08/30 04:30:20;;;;;;;;;3.25;3.25;;;;;-146.67;100.00;57155.34;5063477;28;10268;-78
2023/08/30 04:32:45;;;;;;;;;5.75;1.75;;;;;-146.67;100.00;57155.34;5063903;28;8813;-78
2023/08/30 04:35:11;;;;;;;;;3.00;2.00;;;;;-146.67;100.00;57155.34;5063469;28;9642;-78
2023/08/30 04:37:38;;;;;;;;;1.75;1.75;;;;;-146.67;100.00;57155.34;5081060;28;8893;-78
2023/08/30 04:40:04;;;;;;;;;1.50;1.50;;;;;-146.67;100.00;57155.34;5081672;28;8774;-78
2023/08/30 04:42:29;;;;;;;;;3.00;3.00;;;;;-146.67;100.00;57155.34;5062927;28;10714;-78
2023/08/30 04:44:55;;;;;;;;;2.00;2.00;;;;;-146.67;100.00;57155.34;5079690;28;10520;-78
2023/08/30 04:47:26;;;;;;;;;1.50;1.00;;;;;-146.67;100.00;57155.34;5080353;28;10079;-78
2023/08/30 04:49:51;;;;;;;;;2.00;1.00;;;;;-146.67;100.00;57155.34;5081155;28;10086;-78
2023/08/30 04:52:17;;;;;;;;;1.00;1.00;;;;;-146.67;100.00;57155.34;5081256;28;10349;-78
2023/08/30 04:54:42;;;;;;;;;1.00;1.00;;;;;-146.67;100.00;57155.34;5063190;28;8887;-78
2023/08/30 04:57:08;;;;;;;;;3.75;1.75;;;;;-146.67;100.00;57155.34;5084750;28;8816;-78
2023/08/30 04:59:33;;;;;;;;;2.75;1.00;;;;;-146.67;100.00;57155.34;5084035;28;8777;-78
2023/08/30 05:01:59;;;;;;;;;2.00;2.00;;;;;-146.67;100.00;57155.34;5084518;28;8793;-78
2023/08/30 05:04:24;;;;;;;;;2.25;2.25;;;;;-146.67;100.00;57155.34;5066310;28;8903;-78
2023/08/30 05:06:50;;;;;;;;;3.25;2.00;;;;;-146.67;100.00;57155.34;5066512;28;9880;-78
2023/08/30 05:09:15;;;;;;;;;2.50;1.00;;;;;-146.67;100.00;57155.34;5080441;28;8827;-80
2023/08/30 05:11:41;;;;;;;;;3.75;2.25;;;;;-146.67;100.00;57155.34;5083697;28;8840;-80
2023/08/30 05:14:06;;;;;;;;;2.00;2.00;;;;;-146.67;100.00;57155.34;5084240;28;8864;-79
2023/08/30 05:16:32;;;;;;;;;1.25;1.25;;;;;-146.67;100.00;57155.34;5084460;28;8804;-81
2023/08/30 05:18:57;;;;;;;;;2.75;1.25;;;;;-146.67;100.00;57155.34;5083411;28;8773;-79
2023/08/30 05:21:23;;;;;;;;;5.00;2.25;;;;;-146.67;100.00;57155.34;5065809;28;8801;-79
2023/08/30 05:23:48;;;;;;;;;8.00;2.25;;;;;-146.67;100.00;57155.34;5065847;28;8898;-79
2023/08/30 05:26:13;;;;;;;;;2.25;1.00;;;;;-146.67;100.00;57155.34;5066238;28;10158;-79
2023/08/30 05:28:39;;;;;;;;;4.50;3.00;;;;;-146.67;100.00;57155.34;5083696;28;8872;-80
2023/08/30 05:31:05;;;;;;;;;3.00;2.75;;;;;-146.67;100.00;57155.34;5084110;28;8769;-79
2023/08/30 05:33:30;;;;;;;;;4.00;2.25;;;;;-146.67;100.00;57155.34;5083930;28;8864;-80
2023/08/30 05:35:56;;;;;;;;;2.50;2.50;;;;;-146.67;100.00;57155.34;5083622;28;11500;-80
2023/08/30 05:38:21;;;;;;;;;2.25;1.50;;;;;-146.67;100.00;57155.34;5065601;28;8809;-81
2023/08/30 05:40:47;;;;;;;;;7.25;3.00;;;;;-146.67;100.00;57155.34;5065942;28;8813;-79
2023/08/30 05:43:12;;;;;;;;;4.00;3.00;;;;;-146.67;100.00;57155.34;5081489;28;8906;-81
2023/08/30 05:45:38;;;;;;;;;4.25;3.00;;;;;-146.67;100.00;57155.34;5079302;28;8895;-80
2023/08/30 05:48:03;;;;;;;;;4.00;4.00;;;;;-146.67;100.00;57155.34;5077265;28;9639;-80
2023/08/30 05:50:29;;;;;;;;;3.00;3.00;;;;;-146.67;100.00;57155.34;5056213;28;8807;-80
2023/08/30 05:52:55;;;;;;;;;4.00;3.00;;;;;-146.67;100.00;57155.34;5073940;28;8823;-81
2023/08/30 05:55:20;;;;;;;;;3.00;3.00;;;;;-146.67;100.00;57155.34;5080331;28;8759;-81
2023/08/30 05:57:46;;;;;;;;;4.75;2.75;;;;;-146.67;100.00;57155.34;5078869;28;10086;-81
2023/08/30 06:00:13;;;;;;;;;6.75;4.00;;;;;-146.67;100.00;57155.34;5082557;28;9550;-78
2023/08/30 06:02:38;;;;;;;;;3.25;1.75;;;;;-146.67;100.00;57155.34;5081647;28;8762;-78
2023/08/30 06:05:04;;;;;;;;;4.00;4.00;;;;;-146.67;100.00;57155.34;5060294;28;10360;-78
2023/08/30 06:07:30;;;;;;;;;4.00;2.75;;;;;-146.67;100.00;57155.34;5061671;28;8797;-78
2023/08/30 06:09:55;;;;;;;;;2.25;2.25;;;;;-146.67;100.00;57155.34;5073171;28;8782;-78
2023/08/30 06:12:21;;;;;;;;;4.00;4.00;;;;;-146.67;100.00;57155.34;5083253;28;8783;-77
2023/08/30 06:14:51;;;;;;;;;4.25;2.00;;;;;-146.67;100.00;57155.34;5070230;28;9930;-78
2023/08/30 06:17:17;;;;;;;;;6.25;3.00;;;;;-146.67;100.00;57155.34;5095978;28;8825;-78
2023/08/30 06:19:43;;;;;;;;;2.75;2.75;;;;;-146.67;100.00;57155.34;5082907;28;10069;-78
2023/08/30 06:22:08;;;;;;;;;2.00;2.00;;;;;-146.67;100.00;57155.34;5082750;28;11354;-78
2023/08/30 06:24:34;;;;;;;;;3.25;3.00;;;;;-146.67;100.00;57155.34;5082166;28;10095;-78
2023/08/30 06:27:08;;;;;;;;;2.50;2.00;;;;;-146.67;100.00;57155.34;5084462;28;8810;-75
2023/08/30 06:29:34;;;;;;;;;7.50;4.25;;;;;-146.67;100.00;57155.34;5068212;28;8739;-76
2023/08/30 06:32:03;;;;;;;;;3.50;2.00;;;;;-146.67;100.00;57155.34;5064406;28;10153;-76
2023/08/30 06:34:29;;;;;;;;;2.50;2.50;;;;;-146.67;100.00;57155.34;5097398;28;10079;-76
2023/08/30 06:36:54;;;;;;;;;3.00;2.75;;;;;-146.67;100.00;57155.34;5081591;28;10070;-76
2023/08/30 06:39:19;;;;;;;;;2.25;2.25;;;;;-146.67;100.00;57155.34;5079903;28;8795;-77
2023/08/30 06:41:45;;;;;;;;;4.00;2.00;;;;;-146.67;100.00;57155.34;5065025;28;8904;-76
2023/08/30 06:44:10;;;;;;;;;5.75;4.00;;;;;-146.67;100.00;57155.34;5081243;28;8774;-78
2023/08/30 06:46:37;;;;;;;;;2.50;2.50;;;;;-146.67;100.00;57155.34;5063909;28;8809;-79
2023/08/30 06:49:03;;;;;;;;;2.75;2.75;;;;;-146.67;100.00;57155.34;5064077;28;8731;-79
2023/08/30 06:51:28;;;;;;;;;4.00;2.25;;;;;-146.67;100.00;57155.34;5081141;28;10095;-80
2023/08/30 06:53:55;;;;;;;;;3.75;1.25;;;;;-146.67;100.00;57155.34;5081797;28;8814;-84
2023/08/30 06:56:20;;;;;;;;;1.00;1.00;;;;;-146.67;100.00;57155.34;5039674;28;8768;-79
2023/08/30 06:58:46;;;;;;;;;2.75;2.75;;;;;-146.67;100.00;57155.34;5061157;28;10020;-79
2023/08/30 07:01:12;;;;;;;;;3.00;1.00;;;;;-146.67;100.00;57155.34;5060464;28;8840;-79
2023/08/30 07:03:37;;;;;;;;;2.50;2.50;;;;;-146.67;100.00;57155.34;5043976;28;10226;-77
2023/08/30 07:06:03;;;;;;;;;1.50;1.50;;;;;-146.67;100.00;57155.34;5044277;28;8806;-78
2023/08/30 07:08:29;;;;;;;;;2.75;2.00;;;;;-146.67;100.00;57155.34;5068428;28;8845;-77
2023/08/30 07:10:54;;;;;;;;;3.00;1.50;;;;;-146.67;100.00;57155.34;5059685;28;10124;-78
2023/08/30 07:13:19;;;;;;;;;1.25;1.25;;;;;-146.67;100.00;57155.34;5043169;28;10033;-79
2023/08/30 07:15:46;;;;;;;;;3.00;2.00;;;;;-146.67;100.00;57155.34;5061603;28;8903;-78
2023/08/30 07:18:12;;;;;;;;;3.50;2.00;;;;;-146.67;100.00;57155.34;5044058;28;8721;-78
2023/08/30 07:20:39;;;;;;;;;2.00;2.00;;;;;-146.67;100.00;57155.34;5043438;28;10129;-78
2023/08/30 07:23:04;;;;;;;;;2.00;2.00;;;;;-146.67;100.00;57155.34;5044081;28;10129;-77
2023/08/30 07:25:33;;;;;;;;;1.00;1.00;;;;;-146.67;100.00;57155.34;5043659;28;10012;-77
2023/08/30 07:27:59;;;;;;;;;0.75;0.75;;;;;-146.67;100.00;57155.34;5042549;28;8824;-77
2023/08/30 07:30:25;;;;;;;;;4.25;1.00;;;;;-146.67;100.00;57155.34;5061061;28;9548;-78
2023/08/30 07:32:50;;;;;;;;;2.00;1.00;;;;;-146.67;100.00;57155.34;5039892;28;10071;-79
2023/08/30 07:35:16;;;;;;;;;2.00;1.00;;;;;-146.67;100.00;57155.34;5074758;28;8789;-77
2023/08/30 07:37:42;;;;;;;;;2.00;2.00;;;;;-146.67;100.00;57155.34;5055304;28;9572;-76
2023/08/30 07:40:08;;;;;;;;;2.50;1.00;;;;;-146.67;100.00;57155.34;5061016;28;8825;-78
2023/08/30 07:42:34;;;;;;;;;1.75;1.75;;;;;-146.67;100.00;57155.34;5042729;28;10398;-77
2023/08/30 07:45:00;;;;;;;;;1.00;1.00;;;;;-146.67;100.00;57155.34;5060581;28;10089;-77
2023/08/30 07:47:25;;;;;;;;;3.25;1.75;;;;;-146.67;100.00;57155.34;5060951;28;8904;-77
2023/08/30 07:49:50;;;;;;;;;4.00;3.00;;;;;-146.67;100.00;57155.34;5060372;28;11500;-77
2023/08/30 07:52:16;;;;;;;;;2.00;2.00;;;;;-146.67;100.00;57155.34;5060191;28;10053;-78
2023/08/30 07:54:41;;;;;;;;;1.00;1.00;;;;;-146.67;100.00;57155.34;5065165;28;8789;-78
2023/08/30 07:57:07;;;;;;;;;2.00;2.00;;;;;-146.67;100.00;57155.34;5081407;28;8907;-77
2023/08/30 07:59:36;;;;;;;;;2.00;2.00;;;;;-146.67;100.00;57155.34;5079811;28;8801;-78
2023/08/30 08:02:07;;;;;;;;;1.00;1.00;;;;;-146.67;100.00;57155.34;5066061;28;10005;-78
2023/08/30 08:04:33;;;;;;;;;1.25;1.00;;;;;-146.67;100.00;57155.34;5060074;28;9576;-78
2023/08/30 08:06:59;;;;;;;;;2.00;1.00;;;;;-146.67;100.00;57155.34;5059777;28;9676;-78
2023/08/30 08:09:24;;;;;;;;;4.00;1.75;;;;;-146.67;100.00;57155.34;5060440;28;9819;-78
2023/08/30 08:11:50;;;;;;;;;2.25;2.00;;;;;-146.67;100.00;57155.34;5075294;28;9849;-78
2023/08/30 08:14:15;;;;;;;;;1.00;1.00;;;;;-146.67;100.00;57155.34;5081211;28;8781;-78
2023/08/30 08:16:41;;;;;;;;;2.00;2.00;;;;;-146.67;100.00;57155.34;5063780;28;8769;-78
2023/08/30 08:19:07;;;;;;;;;2.50;1.50;;;;;-146.67;100.00;57155.34;5062756;28;8877;-78
2023/08/30 08:21:33;;;;;;;;;1.75;1.00;;;;;-146.67;100.00;57155.34;5062597;28;9929;-78
2023/08/30 08:23:59;;;;;;;;;2.00;2.00;;;;;-146.67;100.00;57155.34;5063086;28;8804;-77
2023/08/30 08:26:25;;;;;;;;;3.50;2.50;;;;;-146.67;100.00;57155.34;5080821;28;9656;-78
2023/08/30 08:28:51;;;;;;;;;3.25;1.00;;;;;-146.67;100.00;57155.34;5060828;28;8739;-77
2023/08/30 08:31:17;;;;;;;;;2.25;1.50;;;;;-146.67;100.00;57155.34;5062927;28;10779;-77
2023/08/30 08:33:46;;;;;;;;;3.75;2.75;;;;;-146.67;100.00;57155.34;5079442;28;10838;-78
2023/08/30 08:36:12;;;;;;;;;3.75;1.50;;;;;-146.67;100.00;57155.34;5082871;28;8780;-78
2023/08/30 08:38:38;;;;;;;;;3.25;2.50;;;;;-146.67;100.00;57155.34;5063812;28;9899;-78
2023/08/30 08:41:13;;;;;;;;;4.00;1.00;;;;;-146.67;100.00;57155.34;5074817;28;8736;-77
2023/08/30 08:43:42;;;;;;;;;3.00;3.00;;;;;-146.67;100.00;57155.34;5073350;28;9793;-79
2023/08/30 08:46:09;;;;;;;;;3.25;2.75;;;;;-146.67;100.00;57155.34;5103819;28;9848;-78
2023/08/30 08:48:40;;;;;;;;;2.00;2.00;;;;;-146.67;100.00;57155.34;5103605;28;9693;-77
2023/08/30 08:51:06;;;;;;;;;1.00;1.00;;;;;-146.67;100.00;57155.34;5088125;28;9764;-82
2023/08/30 08:53:32;;;;;;;;;3.00;2.75;;;;;-146.67;100.00;57155.34;5081211;28;9736;-80
2023/08/30 08:55:58;;;;;;;;;1.25;1.00;;;;;-146.67;100.00;57155.34;5082209;28;8852;-78
2023/08/30 08:58:24;;;;;;;;;2.00;2.00;;;;;-146.67;100.00;57155.34;5083405;28;8792;-80
2023/08/30 09:00:50;;;;;;;;;1.75;1.75;;;;;-146.67;100.00;57155.34;5083334;28;9866;-75
2023/08/30 09:03:17;;;;;;;;;1.00;1.00;;;;;-146.67;100.00;57155.34;5061671;28;8803;-81
2023/08/30 09:05:44;;;;;;;;;4.00;2.75;;;;;-146.67;100.00;57155.34;5058478;28;8861;-79
2023/08/30 09:08:13;;;;;;;;;2.00;1.00;;;;;-146.67;100.00;57155.34;5077351;28;9927;-81
2023/08/30 09:10:39;;;;;;;;;2.50;2.00;;;;;-146.67;100.00;57155.34;5059635;28;10091;-81
2023/08/30 09:13:05;;;;;;;;;2.00;2.00;;;;;-146.67;100.00;57155.34;5061829;28;9576;-81
2023/08/30 09:15:34;;;;;;;;;3.00;1.00;;;;;-146.67;100.00;57155.34;5051366;28;9806;-81
2023/08/30 09:18:00;;;;;;;;;2.00;2.00;;;;;-146.67;100.00;57155.34;5079998;28;11459;-81
2023/08/30 09:20:26;;;;;;;;;1.00;1.00;;;;;-146.67;100.00;57155.34;5073972;28;9881;-81
2023/08/30 09:22:51;;;;;;;;;2.50;1.00;;;;;-146.67;100.00;57155.34;5065807;28;11480;-81
2023/08/30 09:25:27;;;;;;;;;1.75;1.75;;;;;-146.67;100.00;57155.34;5083489;28;8832;-82
2023/08/30 09:28:00;;;;;;;;;5.00;3.00;;;;;-146.67;100.00;57155.34;5071849;28;8796;-82
2023/08/30 09:30:26;;;;;;;;;2.00;2.00;;;;;-146.67;100.00;57155.34;5048253;28;9982;-82
2023/08/30 09:32:52;;;;;;;;;0.33;0.00;;;;;-146.67;100.00;57155.34;5065714;28;9599;-82
2023/08/30 09:35:17;;;;;;;;;2.50;2.50;;;;;-146.67;100.00;57155.34;5065689;28;9420;-81
2023/08/30 09:37:47;;;;;;;;;1.50;1.50;;;;;-146.67;100.00;57155.34;5065234;28;8801;-80
2023/08/30 09:40:18;;;;;;;;;4.25;2.00;;;;;-146.67;100.00;57155.34;5064039;28;11237;-81
2023/08/30 09:42:44;;;;;;;;;4.00;3.00;;;;;-146.67;100.00;57155.34;5065598;28;9489;-79
2023/08/30 09:45:23;;;;;;;;;2.50;2.50;;;;;-146.67;100.00;57155.34;5065542;28;9772;-81
2023/08/30 09:47:49;;;;;;;;;2.25;2.00;;;;;-146.67;100.00;57155.34;5065009;28;8757;-82
2023/08/30 09:50:19;;;;;;;;;2.50;1.75;;;;;-146.67;100.00;57155.34;5065288;28;10099;-81
2023/08/30 09:52:48;;;;;;;;;6.00;2.00;;;;;-146.67;100.00;57155.34;5083553;28;9636;-79
2023/08/30 09:55:15;;;;;;;;;2.75;2.50;;;;;-146.67;100.00;57155.34;5083048;28;9628;-80
2023/08/30 09:57:43;;;;;;;;;2.75;1.75;;;;;-146.67;100.00;57155.34;5064114;28;9678;-81
2023/08/30 10:00:12;;;;;;;;;5.25;5.25;;;;;-146.67;100.00;57155.34;5061596;28;10437;-80
2023/08/30 10:02:42;;;;;;;;;7.50;2.50;;;;;-146.67;100.00;57155.34;5079865;28;9714;-80
2023/08/30 10:05:09;;;;;;;;;3.75;2.00;;;;;-146.67;100.00;57155.34;5082172;28;9678;-78
2023/08/30 10:07:39;;;;;;;;;4.00;2.00;;;;;-146.67;100.00;57155.34;5061661;28;10668;-79
2023/08/30 10:10:05;;;;;;;;;2.75;2.25;;;;;-146.67;100.00;57155.34;5064864;28;10005;-79
2023/08/30 10:12:34;;;;;;;;;1.75;1.75;;;;;-146.67;100.00;57155.34;5064445;28;9893;-80
2023/08/30 10:15:00;;;;;;;;;4.25;3.25;;;;;-146.67;100.00;57155.34;5080366;28;9661;-79
2023/08/30 10:17:33;;;;;;;;;3.00;3.00;;;;;-146.67;100.00;57155.34;5064326;28;9663;-79
2023/08/30 10:20:05;;;;;;;;;4.25;4.25;;;;;-146.67;100.00;57155.34;5081933;28;9833;-78
2023/08/30 10:22:34;;;;;;;;;4.00;3.00;;;;;-146.67;100.00;57155.34;5080327;28;10397;-78
2023/08/30 10:25:04;;;;;;;;;2.75;2.75;;;;;-146.67;100.00;57155.34;5065018;28;9898;-77
2023/08/30 10:27:33;;;;;;;;;1.67;1.67;;;;;-146.67;100.00;57155.34;5083136;28;10215;-78
2023/08/30 10:30:01;;;;;;;;;2.00;2.00;;;;;-146.67;100.00;57155.34;5082003;28;9677;-78
2023/08/30 10:32:27;;;;;;;;;5.25;2.25;;;;;-146.67;100.00;57155.34;5079299;28;9648;-78
2023/08/30 10:34:53;;;;;;;;;2.00;1.00;;;;;-146.67;100.00;57155.34;5064524;28;9781;-77
2023/08/30 10:37:27;;;;;;;;;5.50;3.00;;;;;-146.67;100.00;57155.34;5065926;28;9820;-77
2023/08/30 10:39:59;;;;;;;;;1.50;0.75;;;;;-146.67;100.00;57155.34;5082276;28;8717;-77
2023/08/30 10:42:24;;;;;;;;;3.25;2.75;;;;;-146.67;100.00;57155.34;5063662;28;9658;-77
2023/08/30 10:44:59;;;;;;;;;2.00;1.00;;;;;-146.67;100.00;57155.34;5061571;28;9679;-78
2023/08/30 10:47:30;;;;;;;;;0.00;0.00;;;;;-146.67;100.00;57155.34;5063836;28;8742;-78
2023/08/30 10:49:59;;;;;;;;;0.75;0.25;;;;;-146.67;100.00;57155.34;5063369;28;9852;-78
2023/08/30 10:52:28;;;;;;;;;5.50;4.50;;;;;-146.67;100.00;57155.34;5081575;28;9779;-78
2023/08/30 10:55:08;;;;;;;;;1.75;1.50;;;;;-146.67;100.00;57155.34;5082610;28;10073;-78
2023/08/30 10:57:35;;;;;;;;;5.50;2.00;;;;;-146.67;100.00;57155.34;5080022;28;9716;-78
2023/08/30 11:00:10;;;;;;;;;8.25;6.25;;;;;-146.67;100.00;57155.34;5073169;28;10056;-79
2023/08/30 11:02:37;;;;;;;;;2.00;1.75;;;;;-146.67;100.00;57155.34;5078806;28;9814;-80
2023/08/30 11:05:08;;;;;;;;;5.00;1.33;;;;;-146.67;100.00;57155.34;5063139;28;9629;-79
2023/08/30 11:07:34;;;;;;;;;2.00;1.00;;;;;-146.67;100.00;57155.34;5061686;28;9276;-80
2023/08/30 11:09:59;;;;;;;;;0.50;0.50;;;;;-146.67;100.00;57155.34;5062671;28;9844;-80
2023/08/30 11:12:30;;;;;;;;;5.00;4.00;;;;;-146.67;100.00;57155.34;5063999;28;8864;-80